METAR Data

Data at: 0301 UTC 24 Jun 2021

METAR for:LIPZ (Venezia/Polo Arpt, VE, IY)
Text:LIPZ 240250Z 36004KT CAVOK 23/18 Q1014 NOSIG
Temperature: 23.0°C ( 73°F)
Dewpoint: 18.0°C ( 64°F) [RH = 73%]
Pressure (altimeter):29.94 inches Hg (1014.0 mb)
Winds:from the N (360 degrees) at 5 MPH (4 knots; 2.1 m/s)
Visibility:6 or more sm (10+ km)
Ceiling:ceiling and visibility are OK
Clouds:unknown

TAF for:LIPZ (Venezia/Polo Arpt, VE, IY) issued at 2300 UTC 23 Jun 2021
Text:TAF LIPZ 232300Z 2400/2506 VRB05KT 9999 SCT030
Forecast period:0000 to 1000 UTC 24 June 2021
Forecast type:FROM: standard forecast or significant change
Winds:variable direction winds at 6 MPH (5 knots; 2.6 m/s)
Visibility:6 or more sm (10+ km)
Ceiling:at least 12,000 feet AGL
Clouds: scattered clouds at 3000 feet AGL
Text:BECMG 2410/2412 16010KT
Forecast period:1000 to 1600 UTC 24 June 2021
Forecast type:BECOMING: Conditions expected to become as follows by 1200 UTC 24 June 2021
Winds:from the SSE (160 degrees) at 12 MPH (10 knots; 5.1 m/s)
Visibility:6 or more sm (10+ km)
Ceiling:at least 12,000 feet AGL
Clouds: scattered clouds at 3000 feet AGL
Text:BECMG 2416/2418 VRB05KT
Forecast period:1600 UTC 24 June 2021 to 0600 UTC 25 June 2021
Forecast type:BECOMING: Conditions expected to become as follows by 1800 UTC 24 June 2021
Winds:variable direction winds at 6 MPH (5 knots; 2.6 m/s)
Visibility:6 or more sm (10+ km)
Ceiling:at least 12,000 feet AGL
Clouds: scattered clouds at 3000 feet AGL